Terminal Aerodrome Forecast
Issued by NWS

Home | Current Version | Previous Version | Text Only | Print | Product List | Glossary On
Versions: 1 2 3 4 5 6 7 8 9 10 11 12 13 14
000
FTUS46 KSEW 201720
TAFBFI
TAF
KBFI 201720Z 2018/2118 18008KT P6SM SCT023 BKN050
      TEMPO 2018/2020 BKN023 OVC050
     FM202000 20010KT P6SM SCT030 BKN060
     FM210300 VRB04KT P6SM SCT040 BKN080
     FM211200 VRB03KT P6SM BKN025 BKN150=

USA.gov is the U.S. government's official web portal to all federal, state and local government web resources and services.